Terminal Aerodrome Forecast
Issued by NWS

Home | Current Version | Previous Version | Text Only | Print | Product List | Glossary On
Versions: 1 2 3 4 5 6 7 8 9 10 11 12
000
FTAK31 PANC 172333
TAFAEN
TAF
PAEN 172333Z 1800/1824 01008KT P6SM SCT100 BKN200
     FM180900 35004KT P6SM -SHRA SCT045 OVC060=

USA.gov is the U.S. government's official web portal to all federal, state and local government web resources and services.